Flight Track Log - Related Links

Times and Time Zones

All times are in EDT time to prevent confusion due to time zone crossing. See the DAL3676 flight status page for this flight to view local times or setup timezone preferences in your user account.

Time Position Orientation Groundspeed Altitude Reporting Facility
EDT Latitude Longitude Course Direction KTS MPH feet Rate Location/Type
Sun 07:03:32 PM 34.7569 -86.7575 North 263 303 4,500  Level Memphis Center
Sun 07:04:32 PM 34.8278 -86.7547 North 269 310 7,600 2,850 Climbing Memphis Center
Sun 07:05:32 PM 34.9047 -86.7514 North 269 310 10,200 1,800 Climbing Memphis Center
Sun 07:06:32 PM 34.9903 -86.7478 North 281 323 11,200 1,650 Climbing Memphis Center
Sun 07:07:32 PM 35.0839 -86.7436 North 312 359 13,500 2,300 Climbing Memphis Center
Sun 07:08:32 PM 35.1733 -86.7347 North 327 376 15,800 2,150 Climbing Memphis Center
Sun 07:09:32 PM 35.2631 -86.7308 North 321 369 17,800 2,050 Climbing Memphis Center
Sun 07:10:32 PM 35.3506 -86.7269 North 321 369 19,900 1,600 Climbing Memphis Center
Sun 07:11:32 PM 35.4422 -86.7231 North 321 369 21,000 1,050 Climbing Memphis Center
Sun 07:12:32 PM 35.5381 -86.7189 North 335 386 22,000 900 Climbing Memphis Center
Sun 07:13:32 PM 35.6275 -86.7122 North 349 402 22,800 950 Climbing Memphis Center
Sun 07:14:32 PM 35.7272 -86.7053 North 349 402 23,900 1,050 Climbing Memphis Center
Sun 07:15:32 PM 35.8314 -86.7008 North 355 409 24,900 1,000 Climbing Memphis Center
Sun 07:16:32 PM 35.9356 -86.6961 North 366 421 25,900 1,000 Climbing Memphis Center
Sun 07:17:32 PM 36.0397 -86.6889 North 366 421 26,900 1,000 Climbing Memphis Center
Sun 07:18:32 PM 36.1397 -86.6844 North 366 421 27,900 550 Climbing Memphis Center
Sun 07:19:32 PM 36.2444 -86.7028 352° North 371 427 28,000 50 Climbing Memphis Center
Sun 07:20:32 PM 36.3553 -86.7183 354° North 384 442 28,000  Level Memphis Center
Sun 07:21:32 PM 36.4686 -86.7392 352° North 404 465 28,000  Level Memphis Center
Sun 07:22:32 PM 36.5839 -86.7625 351° North 412 474 28,000 150 Level Memphis Center
Sun 07:23:32 PM 36.7047 -86.7647 359° North 422 486 28,300 400 Climbing Memphis Center
Sun 07:24:32 PM 36.8253 -86.7492 North 422 486 28,800 219 Climbing Memphis Center
Sun 07:26:44 PM 37.0900 -86.7153 North 441 507 29,000 62 Climbing Indianapolis Center
Sun 07:27:46 PM 37.2172 -86.6997 North 454 522 29,000  Level Indianapolis Center
Sun 07:28:48 PM 37.3442 -86.6833 North 456 525 29,000  Level Indianapolis Center
Sun 07:29:49 PM 37.4950 -86.6639 North 459 528 29,000  Level Indianapolis Center
Sun 07:30:51 PM 37.6206 -86.6492 North 462 532 29,000  Level Indianapolis Center
Sun 07:31:52 PM 37.7478 -86.6336 North 460 529 29,000  Level Indianapolis Center
Sun 07:32:54 PM 37.8758 -86.6175 North 460 529 29,000  Level Indianapolis Center
Sun 07:33:56 PM 38.0028 -86.6014 North 460 529 29,000  Level Indianapolis Center
Sun 07:34:58 PM 38.1286 -86.5856 North 457 526 29,000  Level Indianapolis Center
Sun 07:35:59 PM 38.2544 -86.5700 North 457 526 29,000  Level Indianapolis Center
Sun 07:37:01 PM 38.4047 -86.5506 North 456 525 29,000  Level Indianapolis Center
Sun 07:38:03 PM 38.5294 -86.5356 North 452 520 29,000  Level Indianapolis Center
Sun 07:39:04 PM 38.6547 -86.5200 North 452 520 29,000  Level Indianapolis Center
Sun 07:40:06 PM 38.7789 -86.5025 North 448 516 29,000  Level Indianapolis Center
Sun 07:41:07 PM 38.9078 -86.4872 North 449 517 29,000  Level Indianapolis Center
Sun 07:42:09 PM 39.0317 -86.4700 North 449 517 29,000  Level Indianapolis Center
Sun 07:43:11 PM 39.1539 -86.4292 15° North 463 533 29,000  Level Indianapolis Center
Sun 07:44:12 PM 39.2717 -86.3503 27° Northeast 478 550 29,000  Level Indianapolis Center
Sun 07:45:14 PM 39.4119 -86.2575 27° Northeast 477 549 29,000  Level Indianapolis Center
Sun 07:46:16 PM 39.5272 -86.1803 27° Northeast 473 544 29,000  Level Indianapolis Center
Sun 07:47:17 PM 39.6417 -86.1033 27° Northeast 474 545 29,000  Level Indianapolis Center
Sun 07:48:19 PM 39.7556 -86.0269 27° Northeast 472 543 29,000  Level Indianapolis Center
Sun 07:49:21 PM 39.8936 -85.9333 27° Northeast 473 544 29,000  Level Indianapolis Center
Sun 07:50:22 PM 40.0086 -85.8564 27° Northeast 470 541 29,000  Level Indianapolis Center
Sun 07:51:24 PM 40.1233 -85.7783 27° Northeast 468 539 29,000  Level Indianapolis Center
Sun 07:52:25 PM 40.2381 -85.6992 28° Northeast 469 540 29,000  Level Chicago Center
Sun 07:53:27 PM 40.3525 -85.6222 27° Northeast 465 535 29,000  Level Chicago Center
Sun 07:54:29 PM 40.4658 -85.5447 27° Northeast 463 533 29,000 -484 Level Chicago Center
Sun 07:55:31 PM 40.5789 -85.4664 28° Northeast 461 531 28,000 -1,500 Descending Chicago Center
Sun 07:56:33 PM 40.6936 -85.3850 28° Northeast 453 521 25,900 -2,081 Descending Chicago Center
Sun 07:57:35 PM 40.8219 -85.2953 28° Northeast 438 504 23,700 -1,500 Descending Chicago Center
Sun 07:58:37 PM 40.9275 -85.2231 27° Northeast 432 497 22,800 -968 Descending Chicago Center
Sun 08:00:10 PM 41.0858 -85.0742 35° Northeast 431 496 21,200 -871 Descending Cleveland Center
Sun 08:00:41 PM 41.1233 -85.0333 39° Northeast 441 507 21,000 -129 Descending Chicago Center
Sun 08:01:43 PM 41.2172 -84.9311 39° Northeast 440 506 21,000  Level Chicago Center
Sun 08:02:45 PM 41.3306 -84.8097 39° Northeast 441 507 21,000  Level Chicago Center
Sun 08:03:47 PM 41.4244 -84.7081 39° Northeast 439 505 21,000  Level Chicago Center
Sun 08:04:49 PM 41.5181 -84.6078 39° Northeast 438 504 21,000  Level Chicago Center
Sun 08:05:10 PM 41.5592 -84.5656 38° Northeast 436 502 21,000  Level Cleveland Center
Sun 08:06:15 PM 41.6633 -84.4469 40° Northeast 440 506 21,000 -1,000 Level Cleveland Center
Sun 08:06:58 PM 41.7083 -84.3494 58° Northeast 450 518 19,200 -3,000 Descending Cleveland Center
Sun 08:07:59 PM 41.7608 -84.2106 63° Northeast 423 487 15,800 -3,393 Descending Cleveland Center
Sun 08:09:00 PM 41.8172 -84.0717 61° Northeast 394 453 12,300 -1,869 Descending Cleveland Center
Sun 08:10:01 PM 41.8811 -83.9553 54° Northeast 381 438 12,000 -146 Descending Cleveland Center
Sun 08:11:03 PM 41.9592 -83.8586 43° Northeast 386 444 12,000  Level Cleveland Center
Sun 08:12:04 PM 42.0261 -83.7672 45° Northeast 296 341 12,000  Level Cleveland Center
Sun 08:13:05 PM 42.0869 -83.6861 45° Northeast 294 338 12,000  Level Cleveland Center
Sun 08:14:06 PM 42.1411 -83.6019 49° Northeast 298 343 12,000  Level Cleveland Center
Sun 08:15:06 PM 42.2014 -83.5292 42° Northeast 267 307 12,000 -645 Level Cleveland Center
Sun 08:16:07 PM 42.2628 -83.4928 24° Northeast 231 266 10,700 -1,623 Descending Cleveland Center
Sun 08:17:08 PM 42.3242 -83.4619 20° North 229 264 8,700 -2,049 Descending Cleveland Center
Sun 08:18:10 PM 42.3831 -83.4364 18° North 223 257 6,500 -1,869 Descending Cleveland Center
Sun 08:19:10 PM 42.4381 -83.4022 25° Northeast 228 262 4,900 -1,230 Descending Cleveland Center
Sun 08:20:12 PM 42.4192 -83.3228 108° East 250 288 4,000 -590 Descending Cleveland Center
Sun 08:21:12 PM 42.3725 -83.2700 140° Southeast 199 229 3,700 -300 Descending Cleveland Center

Login

Don't have an account? Register now (free) for customized features, flight alerts, and more!